sensor_id;sensor_type;location;lat;lon;timestamp;temperature;humidity
46754;DHT22;32500;50.620;3.400;2022-12-07T00:03:38;13.30;63.90
46754;DHT22;32500;50.620;3.400;2022-12-07T00:06:05;13.30;63.80
46754;DHT22;32500;50.620;3.400;2022-12-07T00:08:32;13.30;63.80
46754;DHT22;32500;50.620;3.400;2022-12-07T00:11:02;13.20;63.70
46754;DHT22;32500;50.620;3.400;2022-12-07T00:13:29;13.20;63.90
46754;DHT22;32500;50.620;3.400;2022-12-07T00:15:55;13.20;63.70
46754;DHT22;32500;50.620;3.400;2022-12-07T00:18:20;13.20;63.90
46754;DHT22;32500;50.620;3.400;2022-12-07T00:20:46;13.20;63.90
46754;DHT22;32500;50.620;3.400;2022-12-07T00:23:12;13.20;63.90
46754;DHT22;32500;50.620;3.400;2022-12-07T00:25:37;13.20;63.70
46754;DHT22;32500;50.620;3.400;2022-12-07T00:28:03;13.20;63.70
46754;DHT22;32500;50.620;3.400;2022-12-07T00:30:29;13.20;63.70
46754;DHT22;32500;50.620;3.400;2022-12-07T00:32:55;13.20;63.70
46754;DHT22;32500;50.620;3.400;2022-12-07T00:35:20;13.20;64.20
46754;DHT22;32500;50.620;3.400;2022-12-07T00:37:46;13.20;64.00
46754;DHT22;32500;50.620;3.400;2022-12-07T00:40:12;13.10;63.80
46754;DHT22;32500;50.620;3.400;2022-12-07T00:42:37;13.20;64.00
46754;DHT22;32500;50.620;3.400;2022-12-07T00:45:03;13.20;63.80
46754;DHT22;32500;50.620;3.400;2022-12-07T00:47:29;13.20;63.70
46754;DHT22;32500;50.620;3.400;2022-12-07T00:49:55;13.20;63.70
46754;DHT22;32500;50.620;3.400;2022-12-07T00:52:21;13.10;63.70
46754;DHT22;32500;50.620;3.400;2022-12-07T00:54:46;13.10;63.70
46754;DHT22;32500;50.620;3.400;2022-12-07T00:57:12;13.20;63.70
46754;DHT22;32500;50.620;3.400;2022-12-07T00:59:37;13.10;63.70
46754;DHT22;32500;50.620;3.400;2022-12-07T01:02:03;13.10;63.70
46754;DHT22;32500;50.620;3.400;2022-12-07T01:04:29;13.10;63.80
46754;DHT22;32500;50.620;3.400;2022-12-07T01:06:55;13.10;63.90
46754;DHT22;32500;50.620;3.400;2022-12-07T01:09:20;13.10;63.80
46754;DHT22;32500;50.620;3.400;2022-12-07T01:11:46;13.10;63.70
46754;DHT22;32500;50.620;3.400;2022-12-07T01:14:11;13.10;63.70
46754;DHT22;32500;50.620;3.400;2022-12-07T01:16:38;13.10;63.70
46754;DHT22;32500;50.620;3.400;2022-12-07T01:19:04;13.10;63.70
46754;DHT22;32500;50.620;3.400;2022-12-07T01:21:32;13.10;63.70
46754;DHT22;32500;50.620;3.400;2022-12-07T01:24:05;13.10;63.70
46754;DHT22;32500;50.620;3.400;2022-12-07T01:26:30;13.10;63.70
46754;DHT22;32500;50.620;3.400;2022-12-07T01:28:56;13.10;63.80
46754;DHT22;32500;50.620;3.400;2022-12-07T01:31:25;13.10;64.00
46754;DHT22;32500;50.620;3.400;2022-12-07T01:33:53;13.00;63.70
46754;DHT22;32500;50.620;3.400;2022-12-07T01:36:34;13.10;63.80
46754;DHT22;32500;50.620;3.400;2022-12-07T01:39:05;13.10;63.70
46754;DHT22;32500;50.620;3.400;2022-12-07T01:41:33;13.00;63.70
46754;DHT22;32500;50.620;3.400;2022-12-07T01:44:30;13.00;63.90
46754;DHT22;32500;50.620;3.400;2022-12-07T01:47:02;13.00;63.90
46754;DHT22;32500;50.620;3.400;2022-12-07T01:49:37;13.00;63.90
46754;DHT22;32500;50.620;3.400;2022-12-07T01:52:14;13.00;63.90
46754;DHT22;32500;50.620;3.400;2022-12-07T01:54:42;13.00;64.00
46754;DHT22;32500;50.620;3.400;2022-12-07T01:57:08;13.00;63.90
46754;DHT22;32500;50.620;3.400;2022-12-07T01:59:35;13.00;63.90
46754;DHT22;32500;50.620;3.400;2022-12-07T02:02:02;13.00;63.90
46754;DHT22;32500;50.620;3.400;2022-12-07T02:04:31;13.00;63.80
46754;DHT22;32500;50.620;3.400;2022-12-07T02:06:57;13.00;63.70
46754;DHT22;32500;50.620;3.400;2022-12-07T02:09:23;13.00;63.60
46754;DHT22;32500;50.620;3.400;2022-12-07T02:11:49;13.00;63.80
46754;DHT22;32500;50.620;3.400;2022-12-07T02:14:15;13.00;63.90
46754;DHT22;32500;50.620;3.400;2022-12-07T02:17:07;12.90;63.90
46754;DHT22;32500;50.620;3.400;2022-12-07T02:31:21;12.90;64.10
46754;DHT22;32500;50.620;3.400;2022-12-07T02:34:16;12.90;63.90
46754;DHT22;32500;50.620;3.400;2022-12-07T02:36:46;12.90;63.90
46754;DHT22;32500;50.620;3.400;2022-12-07T02:39:19;12.90;63.90
46754;DHT22;32500;50.620;3.400;2022-12-07T02:41:51;12.90;63.90
46754;DHT22;32500;50.620;3.400;2022-12-07T02:44:20;12.90;64.00
46754;DHT22;32500;50.620;3.400;2022-12-07T02:46:53;12.90;63.90
46754;DHT22;32500;50.620;3.400;2022-12-07T02:49:22;12.90;64.00
46754;DHT22;32500;50.620;3.400;2022-12-07T02:51:49;12.90;63.90
46754;DHT22;32500;50.620;3.400;2022-12-07T02:54:17;13.00;63.90
46754;DHT22;32500;50.620;3.400;2022-12-07T02:56:46;12.90;63.80
46754;DHT22;32500;50.620;3.400;2022-12-07T03:12:51;12.80;64.30
46754;DHT22;32500;50.620;3.400;2022-12-07T03:18:00;12.80;64.10
46754;DHT22;32500;50.620;3.400;2022-12-07T03:20:27;12.90;64.20
46754;DHT22;32500;50.620;3.400;2022-12-07T03:22:54;12.80;64.20
46754;DHT22;32500;50.620;3.400;2022-12-07T03:25:20;12.80;64.30
46754;DHT22;32500;50.620;3.400;2022-12-07T03:27:57;12.80;64.20
46754;DHT22;32500;50.620;3.400;2022-12-07T03:36:20;12.80;64.20
46754;DHT22;32500;50.620;3.400;2022-12-07T03:38:51;12.80;64.30
46754;DHT22;32500;50.620;3.400;2022-12-07T03:41:19;12.70;64.20
46754;DHT22;32500;50.620;3.400;2022-12-07T03:43:46;12.70;64.30
46754;DHT22;32500;50.620;3.400;2022-12-07T03:46:31;12.70;64.30
46754;DHT22;32500;50.620;3.400;2022-12-07T03:49:24;12.70;64.30
46754;DHT22;32500;50.620;3.400;2022-12-07T03:52:39;12.70;64.40
46754;DHT22;32500;50.620;3.400;2022-12-07T03:54:56;12.70;64.60
46754;DHT22;32500;50.620;3.400;2022-12-07T03:57:25;12.70;64.50
46754;DHT22;32500;50.620;3.400;2022-12-07T03:59:54;12.70;64.40
46754;DHT22;32500;50.620;3.400;2022-12-07T04:02:20;12.70;64.30
46754;DHT22;32500;50.620;3.400;2022-12-07T04:04:47;12.70;64.30
46754;DHT22;32500;50.620;3.400;2022-12-07T04:07:13;12.70;64.40
46754;DHT22;32500;50.620;3.400;2022-12-07T04:09:38;12.70;64.40
46754;DHT22;32500;50.620;3.400;2022-12-07T04:12:04;12.70;64.40
46754;DHT22;32500;50.620;3.400;2022-12-07T04:14:30;12.70;64.40
46754;DHT22;32500;50.620;3.400;2022-12-07T04:16:57;12.70;64.40
46754;DHT22;32500;50.620;3.400;2022-12-07T04:19:28;12.70;64.40
46754;DHT22;32500;50.620;3.400;2022-12-07T04:21:55;12.70;64.30
46754;DHT22;32500;50.620;3.400;2022-12-07T04:24:21;12.70;64.30
46754;DHT22;32500;50.620;3.400;2022-12-07T04:26:47;12.70;64.30
46754;DHT22;32500;50.620;3.400;2022-12-07T04:29:13;12.70;64.10
46754;DHT22;32500;50.620;3.400;2022-12-07T04:31:39;12.70;64.20
46754;DHT22;32500;50.620;3.400;2022-12-07T04:34:06;12.70;64.30
46754;DHT22;32500;50.620;3.400;2022-12-07T04:36:32;12.70;64.50
46754;DHT22;32500;50.620;3.400;2022-12-07T04:38:58;12.70;64.50
46754;DHT22;32500;50.620;3.400;2022-12-07T04:41:25;12.70;64.20
46754;DHT22;32500;50.620;3.400;2022-12-07T04:43:54;12.70;64.40
46754;DHT22;32500;50.620;3.400;2022-12-07T04:46:21;12.70;64.50
46754;DHT22;32500;50.620;3.400;2022-12-07T04:48:47;12.70;64.30
46754;DHT22;32500;50.620;3.400;2022-12-07T04:51:13;12.70;64.40
46754;DHT22;32500;50.620;3.400;2022-12-07T04:53:39;12.70;64.30
46754;DHT22;32500;50.620;3.400;2022-12-07T04:56:05;12.70;64.50
46754;DHT22;32500;50.620;3.400;2022-12-07T04:58:31;12.70;64.40
46754;DHT22;32500;50.620;3.400;2022-12-07T05:00:56;12.60;65.10
46754;DHT22;32500;50.620;3.400;2022-12-07T05:03:22;12.70;64.30
46754;DHT22;32500;50.620;3.400;2022-12-07T05:05:47;12.60;64.30
46754;DHT22;32500;50.620;3.400;2022-12-07T05:08:13;12.60;64.50
46754;DHT22;32500;50.620;3.400;2022-12-07T05:10:39;12.70;64.60
46754;DHT22;32500;50.620;3.400;2022-12-07T05:13:04;12.70;64.50
46754;DHT22;32500;50.620;3.400;2022-12-07T05:15:30;12.70;64.70
46754;DHT22;32500;50.620;3.400;2022-12-07T05:17:55;12.70;64.80
46754;DHT22;32500;50.620;3.400;2022-12-07T05:20:21;12.70;64.80
46754;DHT22;32500;50.620;3.400;2022-12-07T05:22:47;12.70;64.90
46754;DHT22;32500;50.620;3.400;2022-12-07T05:25:12;12.60;65.00
46754;DHT22;32500;50.620;3.400;2022-12-07T05:27:38;12.60;65.00
46754;DHT22;32500;50.620;3.400;2022-12-07T05:30:05;12.70;65.00
46754;DHT22;32500;50.620;3.400;2022-12-07T05:32:31;12.70;65.00
46754;DHT22;32500;50.620;3.400;2022-12-07T05:34:56;12.60;65.00
46754;DHT22;32500;50.620;3.400;2022-12-07T05:37:22;12.60;65.00
46754;DHT22;32500;50.620;3.400;2022-12-07T05:39:48;12.60;65.10
46754;DHT22;32500;50.620;3.400;2022-12-07T05:42:13;12.60;65.10
46754;DHT22;32500;50.620;3.400;2022-12-07T05:44:40;12.60;65.10
46754;DHT22;32500;50.620;3.400;2022-12-07T05:47:06;12.60;65.10
46754;DHT22;32500;50.620;3.400;2022-12-07T05:49:31;12.60;65.10
46754;DHT22;32500;50.620;3.400;2022-12-07T05:51:57;12.60;65.10
46754;DHT22;32500;50.620;3.400;2022-12-07T05:54:23;12.60;65.30
46754;DHT22;32500;50.620;3.400;2022-12-07T05:56:48;12.60;65.40
46754;DHT22;32500;50.620;3.400;2022-12-07T05:59:14;12.60;65.20
46754;DHT22;32500;50.620;3.400;2022-12-07T06:04:25;12.50;65.30
46754;DHT22;32500;50.620;3.400;2022-12-07T06:06:52;12.60;65.30
46754;DHT22;32500;50.620;3.400;2022-12-07T06:09:19;12.60;65.30
46754;DHT22;32500;50.620;3.400;2022-12-07T06:11:45;12.60;65.40
46754;DHT22;32500;50.620;3.400;2022-12-07T06:14:29;12.60;65.60
46754;DHT22;32500;50.620;3.400;2022-12-07T06:16:55;12.60;66.40
46754;DHT22;32500;50.620;3.400;2022-12-07T06:19:21;12.60;66.20
46754;DHT22;32500;50.620;3.400;2022-12-07T06:21:47;12.60;66.60
46754;DHT22;32500;50.620;3.400;2022-12-07T06:24:14;12.60;66.80
46754;DHT22;32500;50.620;3.400;2022-12-07T06:26:40;12.60;66.80
46754;DHT22;32500;50.620;3.400;2022-12-07T06:29:06;12.70;66.70
46754;DHT22;32500;50.620;3.400;2022-12-07T06:31:32;12.70;66.60
46754;DHT22;32500;50.620;3.400;2022-12-07T06:34:03;12.70;66.40
46754;DHT22;32500;50.620;3.400;2022-12-07T06:36:29;12.70;66.50
46754;DHT22;32500;50.620;3.400;2022-12-07T06:38:55;12.70;67.40
46754;DHT22;32500;50.620;3.400;2022-12-07T06:41:22;12.60;66.40
46754;DHT22;32500;50.620;3.400;2022-12-07T06:43:47;12.60;66.30
46754;DHT22;32500;50.620;3.400;2022-12-07T06:46:14;12.60;66.60
46754;DHT22;32500;50.620;3.400;2022-12-07T06:48:41;12.60;66.60
46754;DHT22;32500;50.620;3.400;2022-12-07T06:51:07;12.60;66.30
46754;DHT22;32500;50.620;3.400;2022-12-07T06:53:33;12.60;66.10
46754;DHT22;32500;50.620;3.400;2022-12-07T06:55:58;12.60;65.90
46754;DHT22;32500;50.620;3.400;2022-12-07T06:58:25;12.60;65.90
46754;DHT22;32500;50.620;3.400;2022-12-07T07:00:50;12.60;65.90
46754;DHT22;32500;50.620;3.400;2022-12-07T07:03:16;12.50;65.90
46754;DHT22;32500;50.620;3.400;2022-12-07T07:05:43;12.50;65.80
46754;DHT22;32500;50.620;3.400;2022-12-07T07:08:09;12.60;65.90
46754;DHT22;32500;50.620;3.400;2022-12-07T07:10:35;12.60;65.80
46754;DHT22;32500;50.620;3.400;2022-12-07T07:13:01;12.60;65.70
46754;DHT22;32500;50.620;3.400;2022-12-07T07:15:27;12.50;65.70
46754;DHT22;32500;50.620;3.400;2022-12-07T07:17:53;12.50;65.80
46754;DHT22;32500;50.620;3.400;2022-12-07T07:20:18;12.50;65.70
46754;DHT22;32500;50.620;3.400;2022-12-07T07:22:44;12.50;65.70
46754;DHT22;32500;50.620;3.400;2022-12-07T07:25:10;12.50;65.70
46754;DHT22;32500;50.620;3.400;2022-12-07T07:27:35;12.50;65.60
46754;DHT22;32500;50.620;3.400;2022-12-07T07:30:01;12.50;65.60
46754;DHT22;32500;50.620;3.400;2022-12-07T07:32:27;12.50;65.40
46754;DHT22;32500;50.620;3.400;2022-12-07T07:34:53;12.50;65.60
46754;DHT22;32500;50.620;3.400;2022-12-07T07:37:18;12.50;65.60
46754;DHT22;32500;50.620;3.400;2022-12-07T07:39:44;12.40;65.60
46754;DHT22;32500;50.620;3.400;2022-12-07T07:42:10;12.40;65.60
46754;DHT22;32500;50.620;3.400;2022-12-07T07:44:35;12.50;65.50
46754;DHT22;32500;50.620;3.400;2022-12-07T07:47:01;12.40;65.50
46754;DHT22;32500;50.620;3.400;2022-12-07T07:49:27;12.50;65.50
46754;DHT22;32500;50.620;3.400;2022-12-07T07:51:53;12.50;65.50
46754;DHT22;32500;50.620;3.400;2022-12-07T07:54:18;12.40;65.40
46754;DHT22;32500;50.620;3.400;2022-12-07T07:56:44;12.40;65.40
46754;DHT22;32500;50.620;3.400;2022-12-07T07:59:10;12.40;65.50
46754;DHT22;32500;50.620;3.400;2022-12-07T08:01:35;12.40;65.40
46754;DHT22;32500;50.620;3.400;2022-12-07T08:04:01;12.40;65.30
46754;DHT22;32500;50.620;3.400;2022-12-07T08:06:27;12.40;65.30
46754;DHT22;32500;50.620;3.400;2022-12-07T08:08:53;12.40;65.20
46754;DHT22;32500;50.620;3.400;2022-12-07T08:11:18;12.40;65.20
46754;DHT22;32500;50.620;3.400;2022-12-07T08:13:47;12.40;65.40
46754;DHT22;32500;50.620;3.400;2022-12-07T08:16:13;12.40;65.30
46754;DHT22;32500;50.620;3.400;2022-12-07T08:18:41;12.40;65.30
46754;DHT22;32500;50.620;3.400;2022-12-07T08:21:11;12.40;65.30
46754;DHT22;32500;50.620;3.400;2022-12-07T08:23:36;12.40;65.30
46754;DHT22;32500;50.620;3.400;2022-12-07T08:26:04;12.40;65.30
46754;DHT22;32500;50.620;3.400;2022-12-07T08:28:31;12.40;65.30
46754;DHT22;32500;50.620;3.400;2022-12-07T08:31:17;12.40;65.20
46754;DHT22;32500;50.620;3.400;2022-12-07T08:33:46;12.40;65.10
46754;DHT22;32500;50.620;3.400;2022-12-07T08:36:12;12.40;65.30
46754;DHT22;32500;50.620;3.400;2022-12-07T08:38:39;12.40;65.00
46754;DHT22;32500;50.620;3.400;2022-12-07T08:41:06;12.40;65.00
46754;DHT22;32500;50.620;3.400;2022-12-07T08:43:32;12.50;64.90
46754;DHT22;32500;50.620;3.400;2022-12-07T08:46:11;12.50;64.80
46754;DHT22;32500;50.620;3.400;2022-12-07T08:48:54;12.50;64.90
46754;DHT22;32500;50.620;3.400;2022-12-07T08:51:22;12.50;64.80
46754;DHT22;32500;50.620;3.400;2022-12-07T08:53:49;12.50;64.70
46754;DHT22;32500;50.620;3.400;2022-12-07T08:56:15;12.50;64.60
46754;DHT22;32500;50.620;3.400;2022-12-07T08:58:42;12.50;64.60
46754;DHT22;32500;50.620;3.400;2022-12-07T09:01:08;12.50;64.50
46754;DHT22;32500;50.620;3.400;2022-12-07T09:03:34;12.50;64.50
46754;DHT22;32500;50.620;3.400;2022-12-07T09:05:59;12.50;64.60
46754;DHT22;32500;50.620;3.400;2022-12-07T09:08:31;12.50;64.50
46754;DHT22;32500;50.620;3.400;2022-12-07T09:10:58;12.60;64.40
46754;DHT22;32500;50.620;3.400;2022-12-07T09:13:24;12.50;64.40
46754;DHT22;32500;50.620;3.400;2022-12-07T09:15:50;12.50;64.50
46754;DHT22;32500;50.620;3.400;2022-12-07T09:18:15;12.50;64.50
46754;DHT22;32500;50.620;3.400;2022-12-07T09:20:41;12.50;64.50
46754;DHT22;32500;50.620;3.400;2022-12-07T09:23:07;12.50;64.50
46754;DHT22;32500;50.620;3.400;2022-12-07T09:25:33;12.50;64.60
46754;DHT22;32500;50.620;3.400;2022-12-07T09:27:59;12.60;64.60
46754;DHT22;32500;50.620;3.400;2022-12-07T09:30:26;12.60;64.50
46754;DHT22;32500;50.620;3.400;2022-12-07T09:32:56;12.60;64.40
46754;DHT22;32500;50.620;3.400;2022-12-07T09:35:22;12.60;64.50
46754;DHT22;32500;50.620;3.400;2022-12-07T09:37:48;12.60;64.40
46754;DHT22;32500;50.620;3.400;2022-12-07T09:40:16;12.60;64.40
46754;DHT22;32500;50.620;3.400;2022-12-07T09:42:47;12.60;64.30
46754;DHT22;32500;50.620;3.400;2022-12-07T09:45:17;12.60;64.20
46754;DHT22;32500;50.620;3.400;2022-12-07T09:47:44;12.60;64.20
46754;DHT22;32500;50.620;3.400;2022-12-07T09:50:23;12.70;64.20
46754;DHT22;32500;50.620;3.400;2022-12-07T09:52:50;12.70;64.20
46754;DHT22;32500;50.620;3.400;2022-12-07T09:55:25;12.70;64.20
46754;DHT22;32500;50.620;3.400;2022-12-07T09:57:53;12.70;64.10
46754;DHT22;32500;50.620;3.400;2022-12-07T10:00:21;12.80;63.90
46754;DHT22;32500;50.620;3.400;2022-12-07T10:05:20;12.80;63.80
46754;DHT22;32500;50.620;3.400;2022-12-07T10:07:47;12.90;64.40
46754;DHT22;32500;50.620;3.400;2022-12-07T10:10:21;12.90;63.50
46754;DHT22;32500;50.620;3.400;2022-12-07T10:13:03;12.80;63.50
46754;DHT22;32500;50.620;3.400;2022-12-07T10:15:58;12.80;63.90
46754;DHT22;32500;50.620;3.400;2022-12-07T10:23:27;12.80;63.90
46754;DHT22;32500;50.620;3.400;2022-12-07T10:25:53;12.80;64.00
46754;DHT22;32500;50.620;3.400;2022-12-07T10:28:21;12.80;64.00
46754;DHT22;32500;50.620;3.400;2022-12-07T10:31:02;12.70;64.10
46754;DHT22;32500;50.620;3.400;2022-12-07T10:34:00;12.70;64.20
46754;DHT22;32500;50.620;3.400;2022-12-07T10:36:45;12.70;64.20
46754;DHT22;32500;50.620;3.400;2022-12-07T10:39:17;12.70;64.30
46754;DHT22;32500;50.620;3.400;2022-12-07T10:41:57;12.80;64.30
46754;DHT22;32500;50.620;3.400;2022-12-07T10:44:28;12.80;64.10
46754;DHT22;32500;50.620;3.400;2022-12-07T11:12:56;12.80;64.00
46754;DHT22;32500;50.620;3.400;2022-12-07T11:17:42;12.80;64.00
46754;DHT22;32500;50.620;3.400;2022-12-07T11:20:15;12.80;64.10
46754;DHT22;32500;50.620;3.400;2022-12-07T11:25:34;12.80;64.10
46754;DHT22;32500;50.620;3.400;2022-12-07T11:33:29;12.80;64.40
46754;DHT22;32500;50.620;3.400;2022-12-07T11:38:55;12.80;64.20
46754;DHT22;32500;50.620;3.400;2022-12-07T11:41:27;12.90;64.00
46754;DHT22;32500;50.620;3.400;2022-12-07T11:44:07;12.90;63.90
46754;DHT22;32500;50.620;3.400;2022-12-07T11:46:58;13.00;63.90
46754;DHT22;32500;50.620;3.400;2022-12-07T11:50:34;13.00;63.90
46754;DHT22;32500;50.620;3.400;2022-12-07T11:53:00;13.00;63.70
46754;DHT22;32500;50.620;3.400;2022-12-07T11:56:31;13.00;63.60
46754;DHT22;32500;50.620;3.400;2022-12-07T12:06:34;13.10;63.70
46754;DHT22;32500;50.620;3.400;2022-12-07T12:09:19;13.00;63.60
46754;DHT22;32500;50.620;3.400;2022-12-07T12:17:23;13.10;63.50
46754;DHT22;32500;50.620;3.400;2022-12-07T12:22:45;13.10;63.40
46754;DHT22;32500;50.620;3.400;2022-12-07T12:25:22;13.10;63.20
46754;DHT22;32500;50.620;3.400;2022-12-07T12:27:50;13.10;63.40
46754;DHT22;32500;50.620;3.400;2022-12-07T12:31:09;13.10;63.20
46754;DHT22;32500;50.620;3.400;2022-12-07T12:33:35;13.10;63.40
46754;DHT22;32500;50.620;3.400;2022-12-07T12:44:00;13.10;63.40
46754;DHT22;32500;50.620;3.400;2022-12-07T12:49:37;13.20;63.30
46754;DHT22;32500;50.620;3.400;2022-12-07T12:57:35;13.20;63.10
46754;DHT22;32500;50.620;3.400;2022-12-07T13:02:36;13.20;63.10
46754;DHT22;32500;50.620;3.400;2022-12-07T13:23:31;13.10;63.70
46754;DHT22;32500;50.620;3.400;2022-12-07T13:26:21;13.10;63.70
46754;DHT22;32500;50.620;3.400;2022-12-07T13:31:38;13.00;64.00
46754;DHT22;32500;50.620;3.400;2022-12-07T13:34:37;13.00;63.90
46754;DHT22;32500;50.620;3.400;2022-12-07T13:40:01;12.90;64.30
46754;DHT22;32500;50.620;3.400;2022-12-07T13:42:41;12.90;64.50
46754;DHT22;32500;50.620;3.400;2022-12-07T13:45:27;12.90;64.60
46754;DHT22;32500;50.620;3.400;2022-12-07T13:48:22;12.80;64.90
46754;DHT22;32500;50.620;3.400;2022-12-07T13:50:56;12.80;65.10
46754;DHT22;32500;50.620;3.400;2022-12-07T13:53:23;12.80;65.20
46754;DHT22;32500;50.620;3.400;2022-12-07T13:55:49;12.80;65.50
46754;DHT22;32500;50.620;3.400;2022-12-07T13:58:15;12.80;65.50
46754;DHT22;32500;50.620;3.400;2022-12-07T14:00:41;12.80;65.80
46754;DHT22;32500;50.620;3.400;2022-12-07T14:05:41;12.80;65.70
46754;DHT22;32500;50.620;3.400;2022-12-07T14:10:55;12.80;65.50
46754;DHT22;32500;50.620;3.400;2022-12-07T14:16:35;13.00;65.50
46754;DHT22;32500;50.620;3.400;2022-12-07T14:19:04;13.10;65.30
46754;DHT22;32500;50.620;3.400;2022-12-07T14:21:32;13.10;65.40
46754;DHT22;32500;50.620;3.400;2022-12-07T14:24:19;13.10;65.20
46754;DHT22;32500;50.620;3.400;2022-12-07T14:26:46;13.20;65.00
46754;DHT22;32500;50.620;3.400;2022-12-07T14:29:42;13.30;64.70
46754;DHT22;32500;50.620;3.400;2022-12-07T14:32:24;13.40;64.60
46754;DHT22;32500;50.620;3.400;2022-12-07T14:37:20;13.40;64.30
46754;DHT22;32500;50.620;3.400;2022-12-07T14:39:46;13.50;64.20
46754;DHT22;32500;50.620;3.400;2022-12-07T14:42:12;13.50;63.90
46754;DHT22;32500;50.620;3.400;2022-12-07T14:44:38;13.50;63.90
46754;DHT22;32500;50.620;3.400;2022-12-07T14:47:03;13.60;63.80
46754;DHT22;32500;50.620;3.400;2022-12-07T14:49:29;13.70;63.60
46754;DHT22;32500;50.620;3.400;2022-12-07T14:51:55;13.70;63.30
46754;DHT22;32500;50.620;3.400;2022-12-07T14:54:24;13.70;63.10
46754;DHT22;32500;50.620;3.400;2022-12-07T14:56:51;13.80;63.20
46754;DHT22;32500;50.620;3.400;2022-12-07T14:59:17;13.80;63.10
46754;DHT22;32500;50.620;3.400;2022-12-07T15:01:44;13.90;63.00
46754;DHT22;32500;50.620;3.400;2022-12-07T15:04:10;13.90;63.00
46754;DHT22;32500;50.620;3.400;2022-12-07T15:06:35;13.90;63.10
46754;DHT22;32500;50.620;3.400;2022-12-07T15:09:02;14.00;62.90
46754;DHT22;32500;50.620;3.400;2022-12-07T15:11:28;14.00;62.70
46754;DHT22;32500;50.620;3.400;2022-12-07T15:13:53;14.10;62.40
46754;DHT22;32500;50.620;3.400;2022-12-07T15:16:37;14.10;62.20
46754;DHT22;32500;50.620;3.400;2022-12-07T15:19:03;14.10;61.90
46754;DHT22;32500;50.620;3.400;2022-12-07T15:21:29;14.10;61.70
46754;DHT22;32500;50.620;3.400;2022-12-07T15:23:55;14.00;61.70
46754;DHT22;32500;50.620;3.400;2022-12-07T15:26:20;14.10;61.80
46754;DHT22;32500;50.620;3.400;2022-12-07T15:28:46;14.10;62.10
46754;DHT22;32500;50.620;3.400;2022-12-07T15:31:13;14.10;61.80
46754;DHT22;32500;50.620;3.400;2022-12-07T15:33:39;14.20;61.70
46754;DHT22;32500;50.620;3.400;2022-12-07T15:36:05;14.20;61.50
46754;DHT22;32500;50.620;3.400;2022-12-07T15:38:31;14.20;61.70
46754;DHT22;32500;50.620;3.400;2022-12-07T15:40:57;14.20;61.70
46754;DHT22;32500;50.620;3.400;2022-12-07T15:43:22;14.20;61.50
46754;DHT22;32500;50.620;3.400;2022-12-07T15:46:07;14.30;61.60
46754;DHT22;32500;50.620;3.400;2022-12-07T15:48:33;14.30;61.90
46754;DHT22;32500;50.620;3.400;2022-12-07T15:51:06;14.30;62.20
46754;DHT22;32500;50.620;3.400;2022-12-07T15:53:33;14.30;62.40
46754;DHT22;32500;50.620;3.400;2022-12-07T15:55:59;14.30;62.40
46754;DHT22;32500;50.620;3.400;2022-12-07T15:58:25;14.30;62.50
46754;DHT22;32500;50.620;3.400;2022-12-07T16:00:50;14.40;63.90
46754;DHT22;32500;50.620;3.400;2022-12-07T16:03:16;14.50;64.40
46754;DHT22;32500;50.620;3.400;2022-12-07T16:05:48;14.50;63.10
46754;DHT22;32500;50.620;3.400;2022-12-07T16:08:14;14.50;63.20
46754;DHT22;32500;50.620;3.400;2022-12-07T16:10:40;14.40;63.10
46754;DHT22;32500;50.620;3.400;2022-12-07T16:13:11;14.40;63.50
46754;DHT22;32500;50.620;3.400;2022-12-07T16:15:39;14.40;63.30
46754;DHT22;32500;50.620;3.400;2022-12-07T16:18:06;14.50;63.20
46754;DHT22;32500;50.620;3.400;2022-12-07T16:20:32;14.40;64.00
46754;DHT22;32500;50.620;3.400;2022-12-07T16:22:59;14.40;63.70
46754;DHT22;32500;50.620;3.400;2022-12-07T16:25:25;14.20;63.90
46754;DHT22;32500;50.620;3.400;2022-12-07T16:27:52;14.10;64.50
46754;DHT22;32500;50.620;3.400;2022-12-07T16:30:18;14.00;65.00
46754;DHT22;32500;50.620;3.400;2022-12-07T16:32:44;13.90;65.20
46754;DHT22;32500;50.620;3.400;2022-12-07T16:35:11;13.80;65.10
46754;DHT22;32500;50.620;3.400;2022-12-07T16:37:37;13.80;65.00
46754;DHT22;32500;50.620;3.400;2022-12-07T16:40:03;13.80;65.00
46754;DHT22;32500;50.620;3.400;2022-12-07T16:42:33;13.90;64.40
46754;DHT22;32500;50.620;3.400;2022-12-07T16:44:59;13.90;65.00
46754;DHT22;32500;50.620;3.400;2022-12-07T16:47:24;13.80;64.20
46754;DHT22;32500;50.620;3.400;2022-12-07T16:49:50;13.80;64.80
46754;DHT22;32500;50.620;3.400;2022-12-07T16:52:20;13.80;64.40
46754;DHT22;32500;50.620;3.400;2022-12-07T16:54:47;13.70;64.40
46754;DHT22;32500;50.620;3.400;2022-12-07T16:57:13;13.70;64.60
46754;DHT22;32500;50.620;3.400;2022-12-07T16:59:39;13.60;64.60
46754;DHT22;32500;50.620;3.400;2022-12-07T17:02:04;13.60;64.70
46754;DHT22;32500;50.620;3.400;2022-12-07T17:04:32;13.60;64.60
46754;DHT22;32500;50.620;3.400;2022-12-07T17:06:58;13.60;64.60
46754;DHT22;32500;50.620;3.400;2022-12-07T17:09:24;13.60;64.70
46754;DHT22;32500;50.620;3.400;2022-12-07T17:11:50;13.60;64.60
46754;DHT22;32500;50.620;3.400;2022-12-07T17:14:16;13.60;64.70
46754;DHT22;32500;50.620;3.400;2022-12-07T17:17:01;13.50;64.60
46754;DHT22;32500;50.620;3.400;2022-12-07T17:19:27;13.50;64.70
46754;DHT22;32500;50.620;3.400;2022-12-07T17:21:53;13.50;64.60
46754;DHT22;32500;50.620;3.400;2022-12-07T17:24:18;13.50;64.80
46754;DHT22;32500;50.620;3.400;2022-12-07T17:26:45;13.40;64.60
46754;DHT22;32500;50.620;3.400;2022-12-07T17:29:13;13.40;64.80
46754;DHT22;32500;50.620;3.400;2022-12-07T17:31:39;13.40;64.80
46754;DHT22;32500;50.620;3.400;2022-12-07T17:34:10;13.30;64.90
46754;DHT22;32500;50.620;3.400;2022-12-07T17:36:37;13.30;65.10
46754;DHT22;32500;50.620;3.400;2022-12-07T17:39:09;13.30;65.80
46754;DHT22;32500;50.620;3.400;2022-12-07T17:41:36;13.30;65.00
46754;DHT22;32500;50.620;3.400;2022-12-07T17:44:21;13.20;65.00
46754;DHT22;32500;50.620;3.400;2022-12-07T17:46:49;13.20;65.10
46754;DHT22;32500;50.620;3.400;2022-12-07T17:49:15;13.20;65.00
46754;DHT22;32500;50.620;3.400;2022-12-07T17:51:42;13.20;65.00
46754;DHT22;32500;50.620;3.400;2022-12-07T17:54:26;13.20;65.00
46754;DHT22;32500;50.620;3.400;2022-12-07T17:56:53;13.20;65.10
46754;DHT22;32500;50.620;3.400;2022-12-07T17:59:19;13.20;65.00
46754;DHT22;32500;50.620;3.400;2022-12-07T18:01:44;13.10;65.10
46754;DHT22;32500;50.620;3.400;2022-12-07T18:04:10;13.10;65.10
46754;DHT22;32500;50.620;3.400;2022-12-07T18:06:36;13.10;65.10
46754;DHT22;32500;50.620;3.400;2022-12-07T18:09:02;13.10;65.00
46754;DHT22;32500;50.620;3.400;2022-12-07T18:11:28;13.10;65.00
46754;DHT22;32500;50.620;3.400;2022-12-07T18:13:54;13.00;65.00
46754;DHT22;32500;50.620;3.400;2022-12-07T18:16:25;13.10;65.00
46754;DHT22;32500;50.620;3.400;2022-12-07T18:18:52;13.00;65.10